createdAt,value
2019-05-06T00:02:04.559Z,88.60
2019-05-06T00:12:08.235Z,89.00
2019-05-06T00:22:11.391Z,89.20
2019-05-06T00:32:15.072Z,89.00
2019-05-06T00:42:37.811Z,88.30
2019-05-06T00:52:41.173Z,88.00
2019-05-06T01:02:44.170Z,88.30
2019-05-06T01:13:11.862Z,88.60
2019-05-06T01:23:14.849Z,90.60
2019-05-06T01:33:17.823Z,90.50
2019-05-06T01:43:25.778Z,90.30
2019-05-06T01:53:28.760Z,90.90
2019-05-06T02:03:31.752Z,91.00
2019-05-06T02:13:34.944Z,90.70
2019-05-06T02:23:41.781Z,94.40
2019-05-06T02:34:11.778Z,93.50
2019-05-06T02:44:14.738Z,92.90
2019-05-06T02:54:17.691Z,92.70
2019-05-06T03:04:23.452Z,92.60
2019-05-06T03:14:25.549Z,92.40
2019-05-06T03:24:50.654Z,92.40
2019-05-06T03:35:16.443Z,92.70
2019-05-06T03:45:04.119Z,93.40
2019-05-06T03:55:07.711Z,93.80
2019-05-06T04:05:13.458Z,97.20
2019-05-06T04:15:16.719Z,95.80
2019-05-06T04:25:58.565Z,95.70
2019-05-06T04:36:03.748Z,93.10
2019-05-06T04:46:06.474Z,93.00
2019-05-06T04:56:09.436Z,95.20
2019-05-06T05:06:13.611Z,94.70
2019-05-06T05:16:42.029Z,92.00
2019-05-06T05:26:47.109Z,86.30
2019-05-06T05:36:52.037Z,82.10
2019-05-06T05:46:55.276Z,81.40
2019-05-06T05:56:58.983Z,68.10
2019-05-06T06:07:02.722Z,64.30
2019-05-06T06:17:17.987Z,61.90
2019-05-06T06:27:22.325Z,59.90
2019-05-06T06:37:57.239Z,59.40
2019-05-06T06:48:00.250Z,57.10
2019-05-06T06:58:22.880Z,54.60
2019-05-06T07:08:36.675Z,50.90
2019-05-06T07:18:33.146Z,45.60
2019-05-06T07:28:35.786Z,41.00
2019-05-06T07:38:48.753Z,34.00
2019-05-06T07:48:51.967Z,30.40
2019-05-06T07:59:06.651Z,25.40
2019-05-06T08:09:10.110Z,24.20
2019-05-06T08:19:13.101Z,25.30
2019-05-06T08:29:16.119Z,23.90
2019-05-06T08:39:19.248Z,27.50
2019-05-06T08:49:22.597Z,32.70
2019-05-06T08:59:25.891Z,39.20
2019-05-06T09:09:28.885Z,48.70
2019-05-06T09:19:33.132Z,51.90
2019-05-06T09:29:43.024Z,49.20
2019-05-06T09:39:47.213Z,47.00
2019-05-06T09:49:50.166Z,40.20
2019-05-06T09:59:53.112Z,32.90
2019-05-06T10:09:56.085Z,27.20
2019-05-06T10:19:59.146Z,15.50
2019-05-06T10:30:05.625Z,20.00
2019-05-06T10:40:18.172Z,24.70
2019-05-06T10:50:22.950Z,27.00
2019-05-06T11:00:26.185Z,28.80
2019-05-06T11:10:38.070Z,31.10
2019-05-06T11:20:34.056Z,27.70
2019-05-06T11:30:55.144Z,35.50
2019-05-06T11:40:58.119Z,41.50
2019-05-06T11:51:03.019Z,42.80
2019-05-06T12:01:13.396Z,43.00
2019-05-06T12:11:16.072Z,48.10
2019-05-06T12:21:19.519Z,47.30
2019-05-06T12:31:23.782Z,48.10
2019-05-06T12:41:26.774Z,50.00
2019-05-06T12:51:32.107Z,50.60
2019-05-06T13:01:34.945Z,48.30
2019-05-06T13:11:38.071Z,47.80
2019-05-06T13:21:42.248Z,48.70
2019-05-06T13:31:45.992Z,50.30
2019-05-06T13:41:49.073Z,48.80
2019-05-06T13:52:06.227Z,44.70
2019-05-06T14:02:27.413Z,39.30
2019-05-06T14:12:32.967Z,36.80
2019-05-06T14:22:35.533Z,35.50
2019-05-06T14:32:38.524Z,37.00
2019-05-06T14:42:42.340Z,35.60
2019-05-06T14:52:45.486Z,34.80
2019-05-06T15:02:48.745Z,34.20
2019-05-06T15:12:53.412Z,33.70
2019-05-06T15:22:56.662Z,38.40
2019-05-06T15:32:59.694Z,42.80
2019-05-06T15:43:02.838Z,43.50
2019-05-06T15:53:05.827Z,46.40
2019-05-06T16:03:08.897Z,45.30
2019-05-06T16:13:12.923Z,43.80
2019-05-06T16:23:34.604Z,40.20
2019-05-06T16:33:37.586Z,42.00
2019-05-06T16:43:42.726Z,43.40
2019-05-06T16:53:46.007Z,45.20
2019-05-06T17:04:03.190Z,44.30
2019-05-06T17:14:06.694Z,45.80
2019-05-06T17:24:09.695Z,46.70
2019-05-06T17:34:15.919Z,45.70
2019-05-06T17:44:22.756Z,46.00
2019-05-06T17:54:26.102Z,47.60
2019-05-06T18:04:29.276Z,50.70
2019-05-06T18:14:33.213Z,49.40
2019-05-06T18:24:36.476Z,52.00
2019-05-06T18:34:39.507Z,53.20
2019-05-06T18:44:42.871Z,54.10
2019-05-06T18:54:45.860Z,55.90
2019-05-06T19:05:08.447Z,56.90
2019-05-06T19:15:12.721Z,57.40
2019-05-06T19:25:16.115Z,58.50
2019-05-06T19:35:19.119Z,61.20
2019-05-06T19:45:22.507Z,64.20
2019-05-06T19:55:26.831Z,64.50
2019-05-06T20:05:46.107Z,66.80
2019-05-06T20:15:49.133Z,65.70
2019-05-06T20:25:52.160Z,65.40
2019-05-06T20:35:55.135Z,66.50
2019-05-06T20:45:58.173Z,67.50
2019-05-06T20:56:02.823Z,68.90
2019-05-06T21:06:05.993Z,70.30
2019-05-06T21:16:12.918Z,70.50
2019-05-06T21:26:15.687Z,74.10
2019-05-06T21:36:18.668Z,76.30
2019-05-06T21:46:21.643Z,76.20
2019-05-06T21:56:24.604Z,76.20
2019-05-06T22:06:27.990Z,76.00
2019-05-06T22:16:32.356Z,75.90
2019-05-06T22:26:35.476Z,75.90
2019-05-06T22:36:38.465Z,76.40
2019-05-06T22:46:42.600Z,77.10
2019-05-06T22:56:45.579Z,77.60
2019-05-06T23:06:48.710Z,78.60
2019-05-06T23:16:52.168Z,80.20
2019-05-06T23:26:55.756Z,79.80
2019-05-06T23:37:27.103Z,81.10
2019-05-06T23:48:25.292Z,80.20
2019-05-06T23:58:29.167Z,80.50
